sensor_id;sensor_type;location;lat;lon;timestamp;temperature;humidity
79024;DHT22;70306;44.764;37.688;2023-08-17T00:00:04;27.48;46.79
79024;DHT22;70306;44.764;37.688;2023-08-17T00:01:10;27.51;46.39
79024;DHT22;70306;44.764;37.688;2023-08-17T00:02:13;27.54;47.61
79024;DHT22;70306;44.764;37.688;2023-08-17T00:03:14;27.51;47.47
79024;DHT22;70306;44.764;37.688;2023-08-17T00:04:17;27.52;48.25
79024;DHT22;70306;44.764;37.688;2023-08-17T00:05:19;27.49;47.26
79024;DHT22;70306;44.764;37.688;2023-08-17T00:06:20;27.46;46.74
79024;DHT22;70306;44.764;37.688;2023-08-17T00:07:22;27.42;47.69
79024;DHT22;70306;44.764;37.688;2023-08-17T00:08:24;27.44;46.85
79024;DHT22;70306;44.764;37.688;2023-08-17T00:09:25;27.41;47.72
79024;DHT22;70306;44.764;37.688;2023-08-17T00:10:27;27.37;47.37
79024;DHT22;70306;44.764;37.688;2023-08-17T00:11:29;27.37;48.01
79024;DHT22;70306;44.764;37.688;2023-08-17T00:12:31;27.35;48.43
79024;DHT22;70306;44.764;37.688;2023-08-17T00:13:33;27.31;47.56
79024;DHT22;70306;44.764;37.688;2023-08-17T00:14:34;27.30;48.33
79024;DHT22;70306;44.764;37.688;2023-08-17T00:15:36;27.33;48.23
79024;DHT22;70306;44.764;37.688;2023-08-17T00:16:38;27.31;48.00
79024;DHT22;70306;44.764;37.688;2023-08-17T00:17:39;27.33;48.53
79024;DHT22;70306;44.764;37.688;2023-08-17T00:18:41;27.30;48.41
79024;DHT22;70306;44.764;37.688;2023-08-17T00:19:42;27.27;47.89
79024;DHT22;70306;44.764;37.688;2023-08-17T00:20:44;27.24;47.42
79024;DHT22;70306;44.764;37.688;2023-08-17T00:21:46;27.21;48.08
79024;DHT22;70306;44.764;37.688;2023-08-17T00:22:48;27.18;47.71
79024;DHT22;70306;44.764;37.688;2023-08-17T00:23:50;27.15;48.09
79024;DHT22;70306;44.764;37.688;2023-08-17T00:24:52;27.13;48.30
79024;DHT22;70306;44.764;37.688;2023-08-17T00:25:53;27.14;48.33
79024;DHT22;70306;44.764;37.688;2023-08-17T00:26:55;27.13;48.28
79024;DHT22;70306;44.764;37.688;2023-08-17T00:27:58;27.08;48.34
79024;DHT22;70306;44.764;37.688;2023-08-17T00:29:00;27.08;48.37
79024;DHT22;70306;44.764;37.688;2023-08-17T00:30:01;27.10;48.70
79024;DHT22;70306;44.764;37.688;2023-08-17T00:31:03;27.07;47.81
79024;DHT22;70306;44.764;37.688;2023-08-17T00:32:05;27.06;47.90
79024;DHT22;70306;44.764;37.688;2023-08-17T00:33:07;27.06;48.65
79024;DHT22;70306;44.764;37.688;2023-08-17T00:34:08;27.04;48.86
79024;DHT22;70306;44.764;37.688;2023-08-17T00:35:10;27.08;48.58
79024;DHT22;70306;44.764;37.688;2023-08-17T00:36:12;27.04;48.08
79024;DHT22;70306;44.764;37.688;2023-08-17T00:37:13;27.04;48.30
79024;DHT22;70306;44.764;37.688;2023-08-17T00:38:15;27.00;48.23
79024;DHT22;70306;44.764;37.688;2023-08-17T00:39:17;26.97;48.35
79024;DHT22;70306;44.764;37.688;2023-08-17T00:40:19;26.97;48.66
79024;DHT22;70306;44.764;37.688;2023-08-17T00:41:20;26.96;48.90
79024;DHT22;70306;44.764;37.688;2023-08-17T00:42:22;26.96;48.48
79024;DHT22;70306;44.764;37.688;2023-08-17T00:43:24;26.93;48.63
79024;DHT22;70306;44.764;37.688;2023-08-17T00:44:25;26.93;48.63
79024;DHT22;70306;44.764;37.688;2023-08-17T00:45:27;26.92;48.84
79024;DHT22;70306;44.764;37.688;2023-08-17T00:46:29;26.92;48.58
79024;DHT22;70306;44.764;37.688;2023-08-17T00:47:31;26.90;48.66
79024;DHT22;70306;44.764;37.688;2023-08-17T00:48:34;26.90;49.18
79024;DHT22;70306;44.764;37.688;2023-08-17T00:49:35;26.94;49.01
79024;DHT22;70306;44.764;37.688;2023-08-17T00:50:37;26.90;48.81
79024;DHT22;70306;44.764;37.688;2023-08-17T00:51:40;26.92;48.69
79024;DHT22;70306;44.764;37.688;2023-08-17T00:52:43;26.93;48.94
79024;DHT22;70306;44.764;37.688;2023-08-17T00:53:44;26.90;49.03
79024;DHT22;70306;44.764;37.688;2023-08-17T00:54:46;26.92;48.42
79024;DHT22;70306;44.764;37.688;2023-08-17T00:55:48;26.94;49.43
79024;DHT22;70306;44.764;37.688;2023-08-17T00:56:51;26.96;49.92
79024;DHT22;70306;44.764;37.688;2023-08-17T00:57:53;27.00;49.03
79024;DHT22;70306;44.764;37.688;2023-08-17T00:58:57;26.97;49.33
79024;DHT22;70306;44.764;37.688;2023-08-17T00:59:59;26.99;49.33
79024;DHT22;70306;44.764;37.688;2023-08-17T01:01:01;27.02;49.43
79024;DHT22;70306;44.764;37.688;2023-08-17T01:02:04;26.99;49.49
79024;DHT22;70306;44.764;37.688;2023-08-17T01:03:06;26.94;49.56
79024;DHT22;70306;44.764;37.688;2023-08-17T01:04:08;26.94;48.69
79024;DHT22;70306;44.764;37.688;2023-08-17T01:05:10;26.92;50.05
79024;DHT22;70306;44.764;37.688;2023-08-17T01:06:12;26.94;50.09
79024;DHT22;70306;44.764;37.688;2023-08-17T01:07:14;26.93;50.21
79024;DHT22;70306;44.764;37.688;2023-08-17T01:08:15;26.93;49.39
79024;DHT22;70306;44.764;37.688;2023-08-17T01:09:17;26.92;49.44
79024;DHT22;70306;44.764;37.688;2023-08-17T01:10:19;26.92;48.63
79024;DHT22;70306;44.764;37.688;2023-08-17T01:14:05;26.87;49.81
79024;DHT22;70306;44.764;37.688;2023-08-17T01:15:17;26.86;50.13
79024;DHT22;70306;44.764;37.688;2023-08-17T01:16:45;26.92;50.64
79024;DHT22;70306;44.764;37.688;2023-08-17T01:17:56;26.89;50.28
79024;DHT22;70306;44.764;37.688;2023-08-17T01:19:00;26.82;50.04
79024;DHT22;70306;44.764;37.688;2023-08-17T01:20:03;26.80;50.39
79024;DHT22;70306;44.764;37.688;2023-08-17T01:21:10;26.76;51.07
79024;DHT22;70306;44.764;37.688;2023-08-17T01:22:14;26.73;50.41
79024;DHT22;70306;44.764;37.688;2023-08-17T01:23:19;26.53;50.19
79024;DHT22;70306;44.764;37.688;2023-08-17T01:24:21;26.42;51.23
79024;DHT22;70306;44.764;37.688;2023-08-17T01:25:23;26.49;51.88
79024;DHT22;70306;44.764;37.688;2023-08-17T01:26:25;26.53;52.54
79024;DHT22;70306;44.764;37.688;2023-08-17T01:27:41;26.56;52.36
79024;DHT22;70306;44.764;37.688;2023-08-17T01:28:45;26.53;53.01
79024;DHT22;70306;44.764;37.688;2023-08-17T01:29:48;26.55;50.73
79024;DHT22;70306;44.764;37.688;2023-08-17T01:30:55;26.53;50.47
79024;DHT22;70306;44.764;37.688;2023-08-17T01:32:06;26.52;51.60
79024;DHT22;70306;44.764;37.688;2023-08-17T01:33:14;26.56;52.39
79024;DHT22;70306;44.764;37.688;2023-08-17T01:34:22;26.52;52.84
79024;DHT22;70306;44.764;37.688;2023-08-17T01:35:33;26.52;51.80
79024;DHT22;70306;44.764;37.688;2023-08-17T01:36:52;26.51;52.04
79024;DHT22;70306;44.764;37.688;2023-08-17T01:37:59;26.49;52.03
79024;DHT22;70306;44.764;37.688;2023-08-17T01:39:05;26.53;52.10
79024;DHT22;70306;44.764;37.688;2023-08-17T01:40:08;26.49;52.42
79024;DHT22;70306;44.764;37.688;2023-08-17T01:41:10;26.49;51.56
79024;DHT22;70306;44.764;37.688;2023-08-17T01:42:16;26.49;51.45
79024;DHT22;70306;44.764;37.688;2023-08-17T01:43:18;26.49;51.81
79024;DHT22;70306;44.764;37.688;2023-08-17T01:44:20;26.48;51.71
79024;DHT22;70306;44.764;37.688;2023-08-17T01:45:22;26.44;49.82
79024;DHT22;70306;44.764;37.688;2023-08-17T01:46:27;26.41;49.80
79024;DHT22;70306;44.764;37.688;2023-08-17T01:47:30;26.40;50.14
79024;DHT22;70306;44.764;37.688;2023-08-17T01:48:31;26.37;49.78
79024;DHT22;70306;44.764;37.688;2023-08-17T01:49:33;26.34;50.54
79024;DHT22;70306;44.764;37.688;2023-08-17T01:50:35;26.32;50.90
79024;DHT22;70306;44.764;37.688;2023-08-17T01:51:36;26.32;50.37
79024;DHT22;70306;44.764;37.688;2023-08-17T01:52:38;26.25;50.56
79024;DHT22;70306;44.764;37.688;2023-08-17T01:53:41;26.20;50.13
79024;DHT22;70306;44.764;37.688;2023-08-17T01:54:42;26.20;50.73
79024;DHT22;70306;44.764;37.688;2023-08-17T01:55:44;26.23;50.70
79024;DHT22;70306;44.764;37.688;2023-08-17T01:56:46;26.24;50.53
79024;DHT22;70306;44.764;37.688;2023-08-17T01:57:47;26.20;49.40
79024;DHT22;70306;44.764;37.688;2023-08-17T01:58:49;26.23;50.25
79024;DHT22;70306;44.764;37.688;2023-08-17T01:59:51;26.20;49.81
79024;DHT22;70306;44.764;37.688;2023-08-17T02:00:52;26.28;51.42
79024;DHT22;70306;44.764;37.688;2023-08-17T02:01:54;26.30;50.12
79024;DHT22;70306;44.764;37.688;2023-08-17T02:02:56;26.32;51.72
79024;DHT22;70306;44.764;37.688;2023-08-17T02:03:57;26.34;52.26
79024;DHT22;70306;44.764;37.688;2023-08-17T02:05:03;26.35;52.00
79024;DHT22;70306;44.764;37.688;2023-08-17T02:06:05;26.32;52.72
79024;DHT22;70306;44.764;37.688;2023-08-17T02:07:07;26.37;53.10
79024;DHT22;70306;44.764;37.688;2023-08-17T02:08:09;26.38;53.10
79024;DHT22;70306;44.764;37.688;2023-08-17T02:09:10;26.38;51.93
79024;DHT22;70306;44.764;37.688;2023-08-17T02:10:12;26.40;53.18
79024;DHT22;70306;44.764;37.688;2023-08-17T02:11:14;26.40;54.34
79024;DHT22;70306;44.764;37.688;2023-08-17T02:12:15;26.38;53.78
79024;DHT22;70306;44.764;37.688;2023-08-17T02:13:18;26.41;53.06
79024;DHT22;70306;44.764;37.688;2023-08-17T02:14:20;26.38;51.80
79024;DHT22;70306;44.764;37.688;2023-08-17T02:15:21;26.37;53.68
79024;DHT22;70306;44.764;37.688;2023-08-17T02:16:23;26.38;54.67
79024;DHT22;70306;44.764;37.688;2023-08-17T02:17:25;26.37;55.01
79024;DHT22;70306;44.764;37.688;2023-08-17T02:18:26;26.32;54.59
79024;DHT22;70306;44.764;37.688;2023-08-17T02:19:32;26.27;52.58
79024;DHT22;70306;44.764;37.688;2023-08-17T02:20:34;26.21;51.02
79024;DHT22;70306;44.764;37.688;2023-08-17T02:21:36;26.21;52.33
79024;DHT22;70306;44.764;37.688;2023-08-17T02:22:38;26.25;53.07
79024;DHT22;70306;44.764;37.688;2023-08-17T02:23:39;26.30;53.53
79024;DHT22;70306;44.764;37.688;2023-08-17T02:24:41;26.31;51.65
79024;DHT22;70306;44.764;37.688;2023-08-17T02:25:43;26.30;51.16
79024;DHT22;70306;44.764;37.688;2023-08-17T02:26:45;26.27;51.35
79024;DHT22;70306;44.764;37.688;2023-08-17T02:27:46;26.25;52.22
79024;DHT22;70306;44.764;37.688;2023-08-17T02:28:48;26.25;52.33
79024;DHT22;70306;44.764;37.688;2023-08-17T02:29:50;26.20;51.90
79024;DHT22;70306;44.764;37.688;2023-08-17T02:30:55;26.20;51.98
79024;DHT22;70306;44.764;37.688;2023-08-17T02:31:57;26.14;50.87
79024;DHT22;70306;44.764;37.688;2023-08-17T02:33:01;26.16;52.04
79024;DHT22;70306;44.764;37.688;2023-08-17T02:34:03;26.18;51.59
79024;DHT22;70306;44.764;37.688;2023-08-17T02:35:06;26.14;53.07
79024;DHT22;70306;44.764;37.688;2023-08-17T02:36:08;26.20;53.39
79024;DHT22;70306;44.764;37.688;2023-08-17T02:37:10;26.20;53.96
79024;DHT22;70306;44.764;37.688;2023-08-17T02:38:12;26.20;54.88
79024;DHT22;70306;44.764;37.688;2023-08-17T02:39:13;26.17;52.99
79024;DHT22;70306;44.764;37.688;2023-08-17T02:40:15;26.10;51.44
79024;DHT22;70306;44.764;37.688;2023-08-17T02:41:17;26.07;50.27
79024;DHT22;70306;44.764;37.688;2023-08-17T02:42:18;26.04;51.43
79024;DHT22;70306;44.764;37.688;2023-08-17T02:43:20;26.06;51.06
79024;DHT22;70306;44.764;37.688;2023-08-17T02:44:22;26.03;51.28
79024;DHT22;70306;44.764;37.688;2023-08-17T02:45:23;26.06;51.27
79024;DHT22;70306;44.764;37.688;2023-08-17T02:46:25;26.04;51.68
79024;DHT22;70306;44.764;37.688;2023-08-17T02:47:27;26.07;51.22
79024;DHT22;70306;44.764;37.688;2023-08-17T02:48:29;26.06;50.82
79024;DHT22;70306;44.764;37.688;2023-08-17T02:49:31;26.10;50.54
79024;DHT22;70306;44.764;37.688;2023-08-17T02:50:33;26.13;51.55
79024;DHT22;70306;44.764;37.688;2023-08-17T02:51:35;26.12;50.63
79024;DHT22;70306;44.764;37.688;2023-08-17T02:52:36;26.13;50.20
79024;DHT22;70306;44.764;37.688;2023-08-17T02:53:38;26.16;51.73
79024;DHT22;70306;44.764;37.688;2023-08-17T02:54:40;26.17;52.14
79024;DHT22;70306;44.764;37.688;2023-08-17T02:55:42;26.21;52.09
79024;DHT22;70306;44.764;37.688;2023-08-17T02:56:43;26.21;50.68
79024;DHT22;70306;44.764;37.688;2023-08-17T02:57:45;26.23;53.13
79024;DHT22;70306;44.764;37.688;2023-08-17T02:58:47;26.25;53.53
79024;DHT22;70306;44.764;37.688;2023-08-17T02:59:48;26.23;51.47
79024;DHT22;70306;44.764;37.688;2023-08-17T03:00:53;26.21;51.08
79024;DHT22;70306;44.764;37.688;2023-08-17T03:01:55;26.20;52.45
79024;DHT22;70306;44.764;37.688;2023-08-17T03:02:57;26.18;51.48
79024;DHT22;70306;44.764;37.688;2023-08-17T03:04:00;26.13;51.17
79024;DHT22;70306;44.764;37.688;2023-08-17T03:05:02;26.10;50.60
79024;DHT22;70306;44.764;37.688;2023-08-17T03:06:04;26.14;51.82
79024;DHT22;70306;44.764;37.688;2023-08-17T03:07:07;26.14;50.27
79024;DHT22;70306;44.764;37.688;2023-08-17T03:08:09;26.14;50.20
79024;DHT22;70306;44.764;37.688;2023-08-17T03:09:10;26.18;50.71
79024;DHT22;70306;44.764;37.688;2023-08-17T03:10:12;26.21;50.78
79024;DHT22;70306;44.764;37.688;2023-08-17T03:11:14;26.23;50.44
79024;DHT22;70306;44.764;37.688;2023-08-17T03:12:15;26.27;52.04
79024;DHT22;70306;44.764;37.688;2023-08-17T03:13:17;26.30;50.73
79024;DHT22;70306;44.764;37.688;2023-08-17T03:14:19;26.34;51.61
79024;DHT22;70306;44.764;37.688;2023-08-17T03:15:21;26.37;51.61
79024;DHT22;70306;44.764;37.688;2023-08-17T03:16:23;26.35;50.75
79024;DHT22;70306;44.764;37.688;2023-08-17T03:17:24;26.38;51.26
79024;DHT22;70306;44.764;37.688;2023-08-17T03:18:26;26.38;50.74
79024;DHT22;70306;44.764;37.688;2023-08-17T03:19:28;26.35;49.88
79024;DHT22;70306;44.764;37.688;2023-08-17T03:20:30;26.35;50.06
79024;DHT22;70306;44.764;37.688;2023-08-17T03:21:32;26.37;49.81
79024;DHT22;70306;44.764;37.688;2023-08-17T03:22:34;26.40;50.09
79024;DHT22;70306;44.764;37.688;2023-08-17T03:23:36;26.42;50.53
79024;DHT22;70306;44.764;37.688;2023-08-17T03:24:38;26.40;50.32
79024;DHT22;70306;44.764;37.688;2023-08-17T03:25:39;26.47;51.73
79024;DHT22;70306;44.764;37.688;2023-08-17T03:26:41;26.49;51.91
79024;DHT22;70306;44.764;37.688;2023-08-17T03:27:43;26.53;51.70
79024;DHT22;70306;44.764;37.688;2023-08-17T03:28:45;26.55;50.80
79024;DHT22;70306;44.764;37.688;2023-08-17T03:29:47;26.58;52.39
79024;DHT22;70306;44.764;37.688;2023-08-17T03:30:48;26.62;51.89
79024;DHT22;70306;44.764;37.688;2023-08-17T03:31:50;26.63;51.54
79024;DHT22;70306;44.764;37.688;2023-08-17T03:32:52;26.66;50.94
79024;DHT22;70306;44.764;37.688;2023-08-17T03:33:53;26.69;51.29
79024;DHT22;70306;44.764;37.688;2023-08-17T03:34:57;26.72;51.19
79024;DHT22;70306;44.764;37.688;2023-08-17T03:35:58;26.62;50.75
79024;DHT22;70306;44.764;37.688;2023-08-17T03:37:00;26.62;51.49
79024;DHT22;70306;44.764;37.688;2023-08-17T03:38:03;26.58;50.54
79024;DHT22;70306;44.764;37.688;2023-08-17T03:39:05;26.56;51.37
79024;DHT22;70306;44.764;37.688;2023-08-17T03:40:07;26.62;51.19
79024;DHT22;70306;44.764;37.688;2023-08-17T03:41:09;26.65;49.98
79024;DHT22;70306;44.764;37.688;2023-08-17T03:42:11;26.62;49.61
79024;DHT22;70306;44.764;37.688;2023-08-17T03:43:13;26.60;49.83
79024;DHT22;70306;44.764;37.688;2023-08-17T03:44:15;26.56;49.61
79024;DHT22;70306;44.764;37.688;2023-08-17T03:45:18;26.60;49.45
79024;DHT22;70306;44.764;37.688;2023-08-17T03:46:19;26.59;49.47
79024;DHT22;70306;44.764;37.688;2023-08-17T03:47:21;26.62;50.21
79024;DHT22;70306;44.764;37.688;2023-08-17T03:48:23;26.59;49.09
79024;DHT22;70306;44.764;37.688;2023-08-17T03:49:25;26.59;49.71
79024;DHT22;70306;44.764;37.688;2023-08-17T03:50:27;26.60;49.58
79024;DHT22;70306;44.764;37.688;2023-08-17T03:51:29;26.63;49.56
79024;DHT22;70306;44.764;37.688;2023-08-17T03:52:31;26.65;50.05
79024;DHT22;70306;44.764;37.688;2023-08-17T03:53:33;26.62;49.74
79024;DHT22;70306;44.764;37.688;2023-08-17T03:54:35;26.65;49.72
79024;DHT22;70306;44.764;37.688;2023-08-17T03:55:37;26.71;49.76
79024;DHT22;70306;44.764;37.688;2023-08-17T03:56:39;26.73;50.08
79024;DHT22;70306;44.764;37.688;2023-08-17T03:57:44;26.78;49.91
79024;DHT22;70306;44.764;37.688;2023-08-17T03:58:46;26.79;49.52
79024;DHT22;70306;44.764;37.688;2023-08-17T03:59:48;26.75;49.25
79024;DHT22;70306;44.764;37.688;2023-08-17T04:00:51;26.75;49.50
79024;DHT22;70306;44.764;37.688;2023-08-17T04:01:55;26.78;49.12
79024;DHT22;70306;44.764;37.688;2023-08-17T04:02:57;26.76;49.56
79024;DHT22;70306;44.764;37.688;2023-08-17T04:03:59;26.75;49.86
79024;DHT22;70306;44.764;37.688;2023-08-17T04:05:03;26.72;49.35
79024;DHT22;70306;44.764;37.688;2023-08-17T04:06:06;26.72;49.38
79024;DHT22;70306;44.764;37.688;2023-08-17T04:07:08;26.69;49.64
79024;DHT22;70306;44.764;37.688;2023-08-17T04:08:10;26.63;49.51
79024;DHT22;70306;44.764;37.688;2023-08-17T04:09:12;26.68;49.45
79024;DHT22;70306;44.764;37.688;2023-08-17T04:10:14;26.68;49.38
79024;DHT22;70306;44.764;37.688;2023-08-17T04:11:15;26.65;49.40
79024;DHT22;70306;44.764;37.688;2023-08-17T04:12:17;26.66;49.37
79024;DHT22;70306;44.764;37.688;2023-08-17T04:13:20;26.71;49.02
79024;DHT22;70306;44.764;37.688;2023-08-17T04:14:21;26.72;49.11
79024;DHT22;70306;44.764;37.688;2023-08-17T04:15:23;26.78;49.37
79024;DHT22;70306;44.764;37.688;2023-08-17T04:16:25;26.85;48.85
79024;DHT22;70306;44.764;37.688;2023-08-17T04:17:26;26.83;48.95
79024;DHT22;70306;44.764;37.688;2023-08-17T04:18:28;26.86;48.96
79024;DHT22;70306;44.764;37.688;2023-08-17T04:19:30;26.86;48.59
79024;DHT22;70306;44.764;37.688;2023-08-17T04:20:32;26.86;49.03
79024;DHT22;70306;44.764;37.688;2023-08-17T04:21:34;26.93;48.68
79024;DHT22;70306;44.764;37.688;2023-08-17T04:22:35;27.02;48.34
79024;DHT22;70306;44.764;37.688;2023-08-17T04:23:37;27.03;48.33
79024;DHT22;70306;44.764;37.688;2023-08-17T04:24:39;27.04;48.78
79024;DHT22;70306;44.764;37.688;2023-08-17T04:25:43;27.07;48.66
79024;DHT22;70306;44.764;37.688;2023-08-17T04:26:44;27.10;47.81
79024;DHT22;70306;44.764;37.688;2023-08-17T04:27:46;27.13;48.11
79024;DHT22;70306;44.764;37.688;2023-08-17T04:28:48;27.17;47.60
79024;DHT22;70306;44.764;37.688;2023-08-17T04:29:51;27.17;47.42
79024;DHT22;70306;44.764;37.688;2023-08-17T04:30:53;27.18;47.61
79024;DHT22;70306;44.764;37.688;2023-08-17T04:31:55;27.18;47.59
79024;DHT22;70306;44.764;37.688;2023-08-17T04:32:57;27.26;47.70
79024;DHT22;70306;44.764;37.688;2023-08-17T04:33:58;27.28;47.81
79024;DHT22;70306;44.764;37.688;2023-08-17T04:35:00;27.37;46.91
79024;DHT22;70306;44.764;37.688;2023-08-17T04:36:02;27.37;46.88
79024;DHT22;70306;44.764;37.688;2023-08-17T04:37:04;27.42;46.71
79024;DHT22;70306;44.764;37.688;2023-08-17T04:38:06;27.44;46.52
79024;DHT22;70306;44.764;37.688;2023-08-17T04:39:08;27.42;46.43
79024;DHT22;70306;44.764;37.688;2023-08-17T04:40:11;27.54;46.45
79024;DHT22;70306;44.764;37.688;2023-08-17T04:41:13;27.59;46.23
79024;DHT22;70306;44.764;37.688;2023-08-17T04:42:15;27.58;46.02
79024;DHT22;70306;44.764;37.688;2023-08-17T04:43:17;27.58;46.24
79024;DHT22;70306;44.764;37.688;2023-08-17T04:44:18;27.63;46.11
79024;DHT22;70306;44.764;37.688;2023-08-17T04:45:20;27.67;46.17
79024;DHT22;70306;44.764;37.688;2023-08-17T04:46:23;27.73;45.70
79024;DHT22;70306;44.764;37.688;2023-08-17T04:47:24;27.79;45.50
79024;DHT22;70306;44.764;37.688;2023-08-17T04:48:27;27.85;45.40
79024;DHT22;70306;44.764;37.688;2023-08-17T04:49:28;27.90;45.76
79024;DHT22;70306;44.764;37.688;2023-08-17T04:50:30;27.92;45.48
79024;DHT22;70306;44.764;37.688;2023-08-17T04:51:32;27.92;45.54
79024;DHT22;70306;44.764;37.688;2023-08-17T04:52:34;27.94;45.38
79024;DHT22;70306;44.764;37.688;2023-08-17T04:53:37;27.99;45.46
79024;DHT22;70306;44.764;37.688;2023-08-17T04:54:38;27.99;45.51
79024;DHT22;70306;44.764;37.688;2023-08-17T04:55:40;27.97;45.55
79024;DHT22;70306;44.764;37.688;2023-08-17T04:56:42;27.99;45.47
79024;DHT22;70306;44.764;37.688;2023-08-17T04:57:44;27.99;45.66
79024;DHT22;70306;44.764;37.688;2023-08-17T04:58:47;28.00;45.72
79024;DHT22;70306;44.764;37.688;2023-08-17T04:59:50;28.01;45.65
79024;DHT22;70306;44.764;37.688;2023-08-17T05:00:52;28.00;45.52
79024;DHT22;70306;44.764;37.688;2023-08-17T05:01:54;28.01;45.58
79024;DHT22;70306;44.764;37.688;2023-08-17T05:02:56;28.10;45.52
79024;DHT22;70306;44.764;37.688;2023-08-17T05:03:59;28.14;45.40
79024;DHT22;70306;44.764;37.688;2023-08-17T05:05:05;28.13;45.44
79024;DHT22;70306;44.764;37.688;2023-08-17T05:06:07;28.14;45.68
79024;DHT22;70306;44.764;37.688;2023-08-17T05:07:09;28.01;45.50
79024;DHT22;70306;44.764;37.688;2023-08-17T05:08:11;28.00;45.50
79024;DHT22;70306;44.764;37.688;2023-08-17T05:09:13;27.97;45.55
79024;DHT22;70306;44.764;37.688;2023-08-17T05:10:15;27.93;45.66
79024;DHT22;70306;44.764;37.688;2023-08-17T05:11:17;27.97;45.86
79024;DHT22;70306;44.764;37.688;2023-08-17T05:12:19;28.03;45.28
79024;DHT22;70306;44.764;37.688;2023-08-17T05:13:21;28.07;45.25
79024;DHT22;70306;44.764;37.688;2023-08-17T05:14:23;28.06;45.81
79024;DHT22;70306;44.764;37.688;2023-08-17T05:15:25;28.10;45.38
79024;DHT22;70306;44.764;37.688;2023-08-17T05:16:26;28.13;45.54
79024;DHT22;70306;44.764;37.688;2023-08-17T05:17:28;28.18;45.24
79024;DHT22;70306;44.764;37.688;2023-08-17T05:18:31;28.20;44.80
79024;DHT22;70306;44.764;37.688;2023-08-17T05:19:32;28.22;44.85
79024;DHT22;70306;44.764;37.688;2023-08-17T05:20:34;28.24;45.22
79024;DHT22;70306;44.764;37.688;2023-08-17T05:21:36;28.22;45.18
79024;DHT22;70306;44.764;37.688;2023-08-17T05:22:38;28.15;45.21
79024;DHT22;70306;44.764;37.688;2023-08-17T05:23:40;28.18;45.06
79024;DHT22;70306;44.764;37.688;2023-08-17T05:24:41;28.22;45.23
79024;DHT22;70306;44.764;37.688;2023-08-17T05:25:46;28.29;45.17
79024;DHT22;70306;44.764;37.688;2023-08-17T05:26:49;28.32;44.74
79024;DHT22;70306;44.764;37.688;2023-08-17T05:27:51;28.37;44.68
79024;DHT22;70306;44.764;37.688;2023-08-17T05:28:52;28.47;44.74
79024;DHT22;70306;44.764;37.688;2023-08-17T05:29:54;28.51;44.15
79024;DHT22;70306;44.764;37.688;2023-08-17T05:31:03;28.55;44.18
79024;DHT22;70306;44.764;37.688;2023-08-17T05:32:05;28.59;43.78
79024;DHT22;70306;44.764;37.688;2023-08-17T05:33:07;28.68;43.65
79024;DHT22;70306;44.764;37.688;2023-08-17T05:34:09;28.70;43.73
79024;DHT22;70306;44.764;37.688;2023-08-17T05:35:12;28.69;43.65
79024;DHT22;70306;44.764;37.688;2023-08-17T05:36:14;28.73;44.11
79024;DHT22;70306;44.764;37.688;2023-08-17T05:37:16;28.82;43.49
79024;DHT22;70306;44.764;37.688;2023-08-17T05:38:18;28.84;43.25
79024;DHT22;70306;44.764;37.688;2023-08-17T05:39:20;28.89;42.65
79024;DHT22;70306;44.764;37.688;2023-08-17T05:40:21;28.92;43.00
79024;DHT22;70306;44.764;37.688;2023-08-17T05:41:23;29.00;43.40
79024;DHT22;70306;44.764;37.688;2023-08-17T05:42:25;29.12;42.74
79024;DHT22;70306;44.764;37.688;2023-08-17T05:43:26;29.08;42.40
79024;DHT22;70306;44.764;37.688;2023-08-17T05:44:28;29.12;42.32
79024;DHT22;70306;44.764;37.688;2023-08-17T05:45:30;29.17;42.91
79024;DHT22;70306;44.764;37.688;2023-08-17T05:46:31;29.27;42.65
79024;DHT22;70306;44.764;37.688;2023-08-17T05:47:33;29.15;42.23
79024;DHT22;70306;44.764;37.688;2023-08-17T05:48:35;29.14;42.82
79024;DHT22;70306;44.764;37.688;2023-08-17T05:49:37;29.18;42.16
79024;DHT22;70306;44.764;37.688;2023-08-17T05:50:42;29.24;42.13
79024;DHT22;70306;44.764;37.688;2023-08-17T05:51:44;29.28;42.16
79024;DHT22;70306;44.764;37.688;2023-08-17T05:52:45;29.38;42.04
79024;DHT22;70306;44.764;37.688;2023-08-17T05:53:47;29.39;42.27
79024;DHT22;70306;44.764;37.688;2023-08-17T05:54:49;29.45;42.06
79024;DHT22;70306;44.764;37.688;2023-08-17T05:55:51;29.49;41.59
79024;DHT22;70306;44.764;37.688;2023-08-17T05:56:52;29.56;41.54
79024;DHT22;70306;44.764;37.688;2023-08-17T05:57:54;29.59;41.49
79024;DHT22;70306;44.764;37.688;2023-08-17T05:58:55;29.61;41.71
79024;DHT22;70306;44.764;37.688;2023-08-17T05:59:57;29.51;41.29
79024;DHT22;70306;44.764;37.688;2023-08-17T06:01:06;29.51;41.50
79024;DHT22;70306;44.764;37.688;2023-08-17T06:02:08;29.61;41.48
79024;DHT22;70306;44.764;37.688;2023-08-17T06:03:10;29.70;40.99
79024;DHT22;70306;44.764;37.688;2023-08-17T06:04:12;29.69;40.95
79024;DHT22;70306;44.764;37.688;2023-08-17T06:05:13;29.62;41.16
79024;DHT22;70306;44.764;37.688;2023-08-17T06:06:15;29.59;41.81
79024;DHT22;70306;44.764;37.688;2023-08-17T06:07:17;29.67;41.90
79024;DHT22;70306;44.764;37.688;2023-08-17T06:08:18;29.76;41.25
79024;DHT22;70306;44.764;37.688;2023-08-17T06:09:20;29.79;41.33
79024;DHT22;70306;44.764;37.688;2023-08-17T06:10:22;29.91;41.16
79024;DHT22;70306;44.764;37.688;2023-08-17T06:11:27;29.90;40.90
79024;DHT22;70306;44.764;37.688;2023-08-17T06:12:29;29.87;41.14
79024;DHT22;70306;44.764;37.688;2023-08-17T06:13:30;29.94;41.12
79024;DHT22;70306;44.764;37.688;2023-08-17T06:14:33;30.01;41.12
79024;DHT22;70306;44.764;37.688;2023-08-17T06:15:35;30.10;40.66
79024;DHT22;70306;44.764;37.688;2023-08-17T06:16:37;30.10;40.62
79024;DHT22;70306;44.764;37.688;2023-08-17T06:17:39;30.03;40.61
79024;DHT22;70306;44.764;37.688;2023-08-17T06:18:41;30.03;41.05
79024;DHT22;70306;44.764;37.688;2023-08-17T06:19:42;30.06;40.60
79024;DHT22;70306;44.764;37.688;2023-08-17T06:20:44;30.18;39.95
79024;DHT22;70306;44.764;37.688;2023-08-17T06:21:48;30.10;40.17
79024;DHT22;70306;44.764;37.688;2023-08-17T06:22:50;29.98;40.22
79024;DHT22;70306;44.764;37.688;2023-08-17T06:23:52;30.06;40.85
79024;DHT22;70306;44.764;37.688;2023-08-17T06:24:53;30.10;40.76
79024;DHT22;70306;44.764;37.688;2023-08-17T06:25:59;30.24;40.44
79024;DHT22;70306;44.764;37.688;2023-08-17T06:27:00;30.31;39.65
79024;DHT22;70306;44.764;37.688;2023-08-17T06:28:02;30.31;39.59
79024;DHT22;70306;44.764;37.688;2023-08-17T06:29:04;30.31;39.92
79024;DHT22;70306;44.764;37.688;2023-08-17T06:30:06;30.36;40.07